createdAt,value
2022-11-03T00:02:22.459Z,26.60
2022-11-03T00:04:52.130Z,21.90
2022-11-03T00:07:22.894Z,23.83
2022-11-03T00:09:50.352Z,31.33
2022-11-03T00:12:17.580Z,31.50
2022-11-03T00:14:45.064Z,26.92
2022-11-03T00:17:12.150Z,29.02
2022-11-03T00:19:41.784Z,27.60
2022-11-03T00:22:08.912Z,27.50
2022-11-03T00:24:38.907Z,20.90
2022-11-03T00:27:10.700Z,30.38
2022-11-03T00:29:41.447Z,26.42
2022-11-03T00:32:08.583Z,32.83
2022-11-03T00:34:38.117Z,27.95
2022-11-03T00:37:05.179Z,22.55
2022-11-03T00:39:37.345Z,28.02
2022-11-03T00:42:06.963Z,28.83
2022-11-03T00:44:34.377Z,24.58
2022-11-03T00:47:06.354Z,29.15
2022-11-03T00:49:33.420Z,24.52
2022-11-03T00:52:00.804Z,27.10
2022-11-03T00:54:27.836Z,32.25
2022-11-03T00:56:55.092Z,25.30
2022-11-03T00:59:22.528Z,28.67
2022-11-03T01:01:52.011Z,29.67
2022-11-03T01:07:07.824Z,23.15
2022-11-03T01:09:41.356Z,22.80
2022-11-03T01:12:18.847Z,25.42
2022-11-03T01:14:48.882Z,21.25
2022-11-03T01:17:21.979Z,28.25
2022-11-03T01:19:49.775Z,28.55
2022-11-03T01:22:17.615Z,29.10
2022-11-03T01:24:45.806Z,26.05
2022-11-03T01:27:18.529Z,27.23
2022-11-03T01:29:46.102Z,33.33
2022-11-03T01:32:15.955Z,29.20
2022-11-03T01:54:37.728Z,23.88
2022-11-03T01:57:52.960Z,31.67
2022-11-03T02:00:41.350Z,33.85
2022-11-03T02:03:09.094Z,24.13
2022-11-03T02:05:37.345Z,26.75
2022-11-03T02:08:14.084Z,33.88
2022-11-03T02:10:47.881Z,25.23
2022-11-03T02:13:22.684Z,26.00
2022-11-03T02:15:58.571Z,24.73
2022-11-03T02:18:33.123Z,26.52
2022-11-03T02:21:46.653Z,26.13
2022-11-03T02:27:02.866Z,30.02
2022-11-03T02:29:30.015Z,23.77
2022-11-03T02:32:22.250Z,29.67
2022-11-03T02:35:04.058Z,28.77
2022-11-03T02:37:36.956Z,34.20
2022-11-03T02:40:13.577Z,32.38
2022-11-03T02:42:48.998Z,28.10
2022-11-03T02:45:19.991Z,33.63
2022-11-03T02:47:56.387Z,40.88
2022-11-03T02:50:30.040Z,50.47
2022-11-03T02:52:57.936Z,58.97
2022-11-03T02:55:40.588Z,51.17
2022-11-03T02:58:35.378Z,55.30
2022-11-03T03:01:15.003Z,50.20
2022-11-03T03:03:48.299Z,53.35
2022-11-03T03:06:28.803Z,62.05
2022-11-03T03:09:03.467Z,61.03
2022-11-03T03:11:39.233Z,71.78
2022-11-03T03:14:13.053Z,69.75
2022-11-03T03:17:10.206Z,80.60
2022-11-03T03:20:08.111Z,78.28
2022-11-03T03:22:39.022Z,82.05
2022-11-03T03:25:13.250Z,78.55
2022-11-03T03:27:46.116Z,75.88
2022-11-03T03:30:14.416Z,67.25
2022-11-03T03:32:49.725Z,47.97
2022-11-03T03:35:26.616Z,50.88
2022-11-03T03:37:57.971Z,43.17
2022-11-03T03:40:37.868Z,46.47
2022-11-03T03:43:14.709Z,42.88
2022-11-03T03:45:48.137Z,42.08
2022-11-03T03:48:15.283Z,33.80
2022-11-03T03:50:44.001Z,30.52
2022-11-03T03:53:13.243Z,26.83
2022-11-03T03:55:43.565Z,23.58
2022-11-03T03:58:14.716Z,27.65
2022-11-03T04:00:47.500Z,29.10
2022-11-03T04:03:26.235Z,29.77
2022-11-03T04:05:56.791Z,27.25
2022-11-03T04:08:23.933Z,31.98
2022-11-03T04:11:12.791Z,26.52
2022-11-03T04:14:01.391Z,31.42
2022-11-03T04:16:47.407Z,29.90
2022-11-03T04:19:33.663Z,30.67
2022-11-03T04:22:16.381Z,33.30
2022-11-03T04:27:24.376Z,27.70
2022-11-03T04:29:52.847Z,24.02
2022-11-03T04:32:20.168Z,30.73
2022-11-03T04:34:50.199Z,24.17
2022-11-03T04:37:17.687Z,25.55
2022-11-03T04:42:20.731Z,27.33
2022-11-03T04:44:50.999Z,25.60
2022-11-03T04:47:20.267Z,24.48
2022-11-03T04:49:48.218Z,27.58
2022-11-03T04:52:22.624Z,28.42
2022-11-03T04:54:53.660Z,22.60
2022-11-03T04:57:27.835Z,22.30
2022-11-03T04:59:55.279Z,22.38
2022-11-03T05:02:26.100Z,25.05
2022-11-03T05:04:53.219Z,23.52
2022-11-03T05:07:36.099Z,22.15
2022-11-03T05:10:06.529Z,21.20
2022-11-03T05:12:33.972Z,21.63
2022-11-03T05:15:07.852Z,25.30
2022-11-03T05:17:37.736Z,22.52
2022-11-03T05:20:24.375Z,24.92
2022-11-03T05:22:51.833Z,26.23
2022-11-03T05:25:44.682Z,20.58
2022-11-03T05:28:32.213Z,21.77
2022-11-03T05:31:01.763Z,25.02
2022-11-03T05:33:34.220Z,24.05
2022-11-03T05:36:12.810Z,24.92
2022-11-03T05:38:40.104Z,21.90
2022-11-03T05:41:16.689Z,26.00
2022-11-03T05:43:44.022Z,26.20
2022-11-03T05:46:14.653Z,25.45
2022-11-03T05:48:44.909Z,29.33
2022-11-03T05:51:38.372Z,31.15
2022-11-03T05:54:16.967Z,23.73
2022-11-03T05:56:49.842Z,24.53
2022-11-03T05:59:23.130Z,26.63
2022-11-03T06:01:53.407Z,26.75
2022-11-03T06:04:37.473Z,27.75
2022-11-03T06:07:26.954Z,31.98
2022-11-03T06:09:54.700Z,23.98
2022-11-03T06:12:23.757Z,26.90
2022-11-03T06:14:53.419Z,26.90
2022-11-03T06:17:28.723Z,31.88
2022-11-03T06:20:00.558Z,34.65
2022-11-03T06:22:31.690Z,30.10
2022-11-03T06:25:18.694Z,38.22
2022-11-03T06:27:48.517Z,29.63
2022-11-03T06:30:26.565Z,40.15
2022-11-03T06:33:21.486Z,49.35
2022-11-03T06:35:50.951Z,47.70
2022-11-03T06:38:22.175Z,48.75
2022-11-03T06:40:55.395Z,39.90
2022-11-03T06:43:42.356Z,40.83
2022-11-03T06:46:18.646Z,40.80
2022-11-03T06:48:49.801Z,38.75
2022-11-03T06:51:22.005Z,64.97
2022-11-03T06:53:54.332Z,86.07
2022-11-03T06:56:37.272Z,70.50
2022-11-03T06:59:10.285Z,51.92
2022-11-03T07:01:37.913Z,61.38
2022-11-03T07:04:29.536Z,56.05
2022-11-03T07:07:02.860Z,68.47
2022-11-03T07:09:32.884Z,76.13
2022-11-03T07:12:03.211Z,66.10
2022-11-03T07:14:33.943Z,61.85
2022-11-03T07:17:07.132Z,81.15
2022-11-03T07:19:40.915Z,58.63
2022-11-03T07:22:27.760Z,49.55
2022-11-03T07:24:59.571Z,44.78
2022-11-03T07:27:38.919Z,37.00
2022-11-03T07:30:29.827Z,38.97
2022-11-03T07:33:21.875Z,42.55
2022-11-03T07:36:14.387Z,38.00
2022-11-03T07:38:39.530Z,29.75
2022-11-03T07:41:16.938Z,40.47
2022-11-03T07:44:05.994Z,36.42
2022-11-03T07:46:36.900Z,28.30
2022-11-03T07:49:08.698Z,27.65
2022-11-03T07:51:42.481Z,40.00
2022-11-03T07:54:16.000Z,39.97
2022-11-03T07:56:47.837Z,34.92
2022-11-03T08:01:58.840Z,38.95
2022-11-03T08:04:36.269Z,32.17
2022-11-03T08:07:06.005Z,31.85
2022-11-03T08:09:33.071Z,35.17
2022-11-03T08:12:03.417Z,29.50
2022-11-03T08:14:32.952Z,34.38
2022-11-03T08:17:00.309Z,32.35
2022-11-03T08:19:27.430Z,37.40
2022-11-03T08:21:57.497Z,30.92
2022-11-03T08:24:26.806Z,31.02
2022-11-03T08:26:54.602Z,30.75
2022-11-03T08:29:27.133Z,29.83
2022-11-03T08:31:56.918Z,30.70
2022-11-03T08:34:24.323Z,33.55
2022-11-03T08:36:53.907Z,29.27
2022-11-03T08:39:23.318Z,38.97
2022-11-03T08:41:53.616Z,44.75
2022-11-03T08:44:23.514Z,26.38
2022-11-03T08:46:53.821Z,36.00
2022-11-03T08:49:21.297Z,36.40
2022-11-03T08:51:50.992Z,22.10
2022-11-03T08:54:18.130Z,20.27
2022-11-03T08:56:48.928Z,21.05
2022-11-03T08:59:18.051Z,27.92
2022-11-03T09:01:45.622Z,31.80
2022-11-03T09:04:15.159Z,27.20
2022-11-03T09:06:42.601Z,23.77
2022-11-03T09:12:02.005Z,28.40
2022-11-03T09:14:29.088Z,23.38
2022-11-03T09:16:56.298Z,22.67
2022-11-03T09:19:26.441Z,23.75
2022-11-03T09:21:53.628Z,25.33
2022-11-03T09:24:23.259Z,22.27
2022-11-03T09:26:55.986Z,27.17
2022-11-03T09:29:30.060Z,23.92
2022-11-03T09:32:04.277Z,26.13
2022-11-03T09:34:33.735Z,23.55
2022-11-03T09:37:01.205Z,26.30
2022-11-03T09:39:28.433Z,35.15
2022-11-03T09:41:59.332Z,19.73
2022-11-03T09:44:27.313Z,21.25
2022-11-03T09:46:58.281Z,26.33
2022-11-03T09:49:31.491Z,24.70
2022-11-03T09:52:03.857Z,20.40
2022-11-03T09:54:33.246Z,23.38
2022-11-03T09:57:15.447Z,20.92
2022-11-03T09:59:48.479Z,23.25
2022-11-03T10:02:43.252Z,23.27
2022-11-03T10:07:46.868Z,21.45
2022-11-03T10:10:21.391Z,20.63
2022-11-03T10:12:53.372Z,24.08
2022-11-03T10:15:23.116Z,35.67
2022-11-03T10:17:51.546Z,37.22
2022-11-03T10:20:23.882Z,24.88
2022-11-03T10:22:53.843Z,14.43
2022-11-03T10:25:36.358Z,20.02
2022-11-03T10:28:26.830Z,15.43
2022-11-03T10:31:11.684Z,24.63
2022-11-03T10:33:52.263Z,14.93
2022-11-03T10:36:19.412Z,19.48
2022-11-03T10:38:51.637Z,25.42
2022-11-03T10:41:30.120Z,16.60
2022-11-03T10:44:08.221Z,22.23
2022-11-03T10:46:49.637Z,38.17
2022-11-03T10:49:21.948Z,8.75
2022-11-03T10:51:52.692Z,9.40
2022-11-03T10:54:24.425Z,21.17
2022-11-03T10:56:57.272Z,15.10
2022-11-03T10:59:32.356Z,11.55
2022-11-03T11:02:03.156Z,13.68
2022-11-03T11:04:32.766Z,15.20
2022-11-03T11:06:59.918Z,18.73
2022-11-03T11:09:29.768Z,13.60
2022-11-03T11:12:15.519Z,12.85
2022-11-03T11:15:00.165Z,9.52
2022-11-03T11:17:47.516Z,10.63
2022-11-03T11:20:29.387Z,6.72
2022-11-03T11:23:41.582Z,6.63
2022-11-03T11:26:09.317Z,9.75
2022-11-03T11:28:41.130Z,11.88
2022-11-03T11:31:22.667Z,12.27
2022-11-03T11:33:50.400Z,9.30
2022-11-03T11:36:23.989Z,6.35
2022-11-03T11:38:55.527Z,5.88
2022-11-03T11:42:04.124Z,8.68
2022-11-03T11:44:50.550Z,10.82
2022-11-03T11:47:43.814Z,9.98
2022-11-03T11:50:21.763Z,11.93
2022-11-03T11:53:04.012Z,14.00
2022-11-03T11:55:34.454Z,9.77
2022-11-03T11:58:06.629Z,13.80
2022-11-03T12:00:35.147Z,9.23
2022-11-03T12:03:05.380Z,13.90
2022-11-03T12:05:35.678Z,8.90
2022-11-03T12:08:16.446Z,11.18
2022-11-03T12:10:53.483Z,4.50
2022-11-03T12:13:41.621Z,6.97
2022-11-03T12:16:09.032Z,9.63
2022-11-03T12:18:49.414Z,7.70
2022-11-03T12:21:46.448Z,5.15
2022-11-03T12:24:32.493Z,7.22
2022-11-03T12:27:04.110Z,7.57
2022-11-03T12:29:33.684Z,15.65
2022-11-03T12:32:00.832Z,7.45
2022-11-03T12:34:28.057Z,7.45
2022-11-03T12:36:58.488Z,8.80
2022-11-03T12:39:27.850Z,6.88
2022-11-03T12:41:54.965Z,9.95
2022-11-03T12:44:22.883Z,12.23
2022-11-03T12:46:50.005Z,5.95
2022-11-03T12:49:17.280Z,5.38
2022-11-03T12:51:47.216Z,5.35
2022-11-03T12:54:14.383Z,7.53
2022-11-03T12:56:42.093Z,11.68
2022-11-03T12:59:09.710Z,11.95
2022-11-03T13:01:41.765Z,9.77
2022-11-03T13:04:09.179Z,9.50
2022-11-03T13:06:39.158Z,9.10
2022-11-03T13:09:08.342Z,9.15
2022-11-03T13:11:56.820Z,6.95
2022-11-03T13:14:26.357Z,11.63
2022-11-03T13:16:54.207Z,11.25
2022-11-03T13:19:21.495Z,8.43
2022-11-03T13:21:54.221Z,7.13
2022-11-03T13:24:23.652Z,11.38
2022-11-03T13:26:51.085Z,12.88
2022-11-03T13:29:20.488Z,12.15
2022-11-03T13:31:48.246Z,11.13
2022-11-03T13:34:15.369Z,8.60
2022-11-03T13:36:45.090Z,13.05
2022-11-03T13:39:14.565Z,11.95
2022-11-03T13:41:42.326Z,11.48
2022-11-03T13:44:09.936Z,15.23
2022-11-03T13:46:39.796Z,13.93
2022-11-03T13:52:01.598Z,14.38
2022-11-03T14:00:17.585Z,14.80
2022-11-03T14:05:35.602Z,16.10
2022-11-03T14:08:05.283Z,20.17
2022-11-03T14:10:34.960Z,10.05
2022-11-03T14:13:04.817Z,16.60
2022-11-03T14:15:35.641Z,9.65
2022-11-03T14:18:05.590Z,10.48
2022-11-03T14:20:32.754Z,19.30
2022-11-03T14:23:02.617Z,14.93
2022-11-03T14:25:29.799Z,21.55
2022-11-03T14:28:00.156Z,18.50
2022-11-03T14:30:27.393Z,12.63
2022-11-03T14:33:07.051Z,12.05
2022-11-03T14:35:37.072Z,10.48
2022-11-03T14:38:07.736Z,20.60
2022-11-03T14:40:58.682Z,14.38
2022-11-03T14:43:28.774Z,16.02
2022-11-03T14:45:58.805Z,23.13
2022-11-03T14:48:26.301Z,24.05
2022-11-03T14:50:53.567Z,33.83
2022-11-03T14:53:20.822Z,23.92
2022-11-03T14:55:48.248Z,39.50
2022-11-03T14:58:15.352Z,27.20
2022-11-03T15:00:45.934Z,19.10
2022-11-03T15:03:13.194Z,34.13
2022-11-03T15:05:46.183Z,32.45
2022-11-03T15:08:21.783Z,30.98
2022-11-03T15:10:51.808Z,29.58
2022-11-03T15:13:26.108Z,24.77
2022-11-03T15:15:56.154Z,23.95
2022-11-03T15:18:23.950Z,24.38
2022-11-03T15:20:54.211Z,19.67
2022-11-03T15:26:12.776Z,18.70
2022-11-03T15:28:42.328Z,23.75
2022-11-03T15:31:09.775Z,20.23
2022-11-03T15:33:40.481Z,22.83
2022-11-03T15:36:08.374Z,25.20
2022-11-03T15:38:35.917Z,19.80
2022-11-03T15:41:19.334Z,20.60
2022-11-03T15:43:52.508Z,25.42
2022-11-03T15:46:22.110Z,23.20
2022-11-03T15:48:51.635Z,19.55
2022-11-03T15:51:23.494Z,20.20
2022-11-03T15:56:29.727Z,18.75
2022-11-03T15:58:59.448Z,15.77
2022-11-03T16:01:29.959Z,20.65
2022-11-03T16:03:57.506Z,15.93
2022-11-03T16:06:40.567Z,27.33
2022-11-03T16:09:12.666Z,33.63
2022-11-03T16:11:44.396Z,33.17
2022-11-03T16:14:11.517Z,24.83
2022-11-03T16:16:39.131Z,25.45
2022-11-03T16:19:06.629Z,23.02
2022-11-03T16:21:34.298Z,37.08
2022-11-03T16:24:04.092Z,26.52
2022-11-03T16:26:32.152Z,27.98
2022-11-03T16:28:59.569Z,21.67
2022-11-03T16:31:29.613Z,23.17
2022-11-03T16:33:59.847Z,18.58
2022-11-03T16:36:27.308Z,20.67
2022-11-03T16:38:59.020Z,30.55
2022-11-03T16:41:28.970Z,24.75
2022-11-03T16:43:56.738Z,18.92
2022-11-03T16:46:29.012Z,20.27
2022-11-03T16:48:56.087Z,15.65
2022-11-03T16:51:27.001Z,20.42
2022-11-03T16:53:59.732Z,25.92
2022-11-03T16:56:29.552Z,25.33
2022-11-03T16:58:58.864Z,20.60
2022-11-03T17:01:27.553Z,27.65
2022-11-03T17:03:55.082Z,24.23
2022-11-03T17:06:25.548Z,25.38
2022-11-03T17:08:53.807Z,27.13
2022-11-03T17:11:36.499Z,28.77
2022-11-03T17:14:08.735Z,24.48
2022-11-03T17:16:45.584Z,21.20
2022-11-03T17:19:15.659Z,35.80
2022-11-03T17:21:43.535Z,34.78
2022-11-03T17:24:11.394Z,37.15
2022-11-03T17:27:09.659Z,39.22
2022-11-03T17:29:43.826Z,34.88
2022-11-03T17:32:21.740Z,29.15
2022-11-03T17:34:48.902Z,32.83
2022-11-03T17:37:16.740Z,49.78
2022-11-03T17:39:43.967Z,48.00
2022-11-03T17:42:22.768Z,32.75
2022-11-03T17:44:51.577Z,48.65
2022-11-03T17:47:20.583Z,33.30
2022-11-03T17:49:48.900Z,36.08
2022-11-03T17:52:28.994Z,38.55
2022-11-03T17:55:00.033Z,33.78
2022-11-03T17:57:30.168Z,45.72
2022-11-03T18:00:00.561Z,39.95
2022-11-03T18:02:31.916Z,39.25
2022-11-03T18:05:16.790Z,44.30
2022-11-03T18:07:48.409Z,45.50
2022-11-03T18:10:15.640Z,42.22
2022-11-03T18:13:07.524Z,48.15
2022-11-03T18:15:39.260Z,47.63
2022-11-03T18:18:25.432Z,58.08
2022-11-03T18:20:54.043Z,71.30
2022-11-03T18:23:27.136Z,110.13
2022-11-03T18:26:01.642Z,61.45
2022-11-03T18:28:31.604Z,57.33
2022-11-03T18:30:58.877Z,74.00
2022-11-03T18:33:33.036Z,41.70
2022-11-03T18:36:04.377Z,35.38
2022-11-03T18:38:35.069Z,26.83
2022-11-03T18:41:02.245Z,38.97
2022-11-03T18:43:29.754Z,37.05
2022-11-03T18:45:59.059Z,25.85
2022-11-03T18:48:31.924Z,30.73
2022-11-03T18:50:59.436Z,36.55
2022-11-03T18:53:30.115Z,37.63
2022-11-03T18:56:01.259Z,37.10
2022-11-03T18:58:33.722Z,25.38
2022-11-03T19:01:01.135Z,52.08
2022-11-03T19:03:28.988Z,29.77
2022-11-03T19:06:01.070Z,36.85
2022-11-03T19:11:03.827Z,35.03
2022-11-03T19:13:46.497Z,34.28
2022-11-03T19:16:18.761Z,37.45
2022-11-03T19:18:47.395Z,35.13
2022-11-03T19:21:23.525Z,31.17
2022-11-03T19:23:55.460Z,33.35
2022-11-03T19:26:29.423Z,30.63
2022-11-03T19:29:11.454Z,33.55
2022-11-03T19:31:47.555Z,35.92
2022-11-03T19:34:19.579Z,32.08
2022-11-03T19:36:51.083Z,29.98
2022-11-03T19:39:41.972Z,36.28
2022-11-03T19:42:33.093Z,31.77
2022-11-03T19:45:05.912Z,34.08
2022-11-03T19:50:19.082Z,26.55
2022-11-03T19:52:52.082Z,35.40
2022-11-03T19:55:32.123Z,28.73
2022-11-03T19:58:15.993Z,37.88
2022-11-03T20:03:11.777Z,25.50
2022-11-03T20:05:42.886Z,31.13
2022-11-03T20:08:19.094Z,25.50
2022-11-03T20:10:47.860Z,29.10
2022-11-03T20:13:20.412Z,41.72
2022-11-03T20:15:48.044Z,29.48
2022-11-03T20:18:19.779Z,32.75
2022-11-03T20:20:49.887Z,36.72
2022-11-03T20:23:29.768Z,31.58
2022-11-03T20:25:59.815Z,29.10
2022-11-03T20:28:34.174Z,23.98
2022-11-03T20:31:03.905Z,23.00
2022-11-03T20:33:41.564Z,27.73
2022-11-03T20:36:20.107Z,28.20
2022-11-03T20:38:55.599Z,28.13
2022-11-03T20:41:23.033Z,25.73
2022-11-03T20:43:52.322Z,27.30
2022-11-03T20:46:27.940Z,24.55
2022-11-03T20:48:56.495Z,28.70
2022-11-03T20:51:38.461Z,24.70
2022-11-03T20:54:21.780Z,20.27
2022-11-03T20:56:49.027Z,27.55
2022-11-03T20:59:18.255Z,21.42
2022-11-03T21:01:45.789Z,18.88
2022-11-03T21:04:18.345Z,19.38
2022-11-03T21:06:46.078Z,18.08
2022-11-03T21:09:18.881Z,16.23
2022-11-03T21:14:35.433Z,23.92
2022-11-03T21:17:21.973Z,22.55
2022-11-03T21:20:11.547Z,23.52
2022-11-03T21:22:52.349Z,27.13
2022-11-03T21:25:25.197Z,22.75
2022-11-03T21:27:54.381Z,21.40
2022-11-03T21:30:23.136Z,23.38
2022-11-03T21:32:50.395Z,19.42
2022-11-03T21:35:20.230Z,17.67
2022-11-03T21:37:52.712Z,17.27
2022-11-03T21:40:20.760Z,27.75
2022-11-03T21:43:07.218Z,24.67
2022-11-03T21:45:35.501Z,22.90
2022-11-03T21:48:23.967Z,24.52
2022-11-03T21:50:51.883Z,32.60
2022-11-03T21:53:19.020Z,22.88
2022-11-03T21:55:49.604Z,17.88
2022-11-03T21:58:19.780Z,26.70
2022-11-03T22:00:52.008Z,21.17
2022-11-03T22:03:19.284Z,18.83
2022-11-03T22:05:53.672Z,21.00
2022-11-03T22:08:24.551Z,22.05
2022-11-03T22:11:15.090Z,20.95
2022-11-03T22:13:42.398Z,19.77
2022-11-03T22:16:28.262Z,22.70
2022-11-03T22:19:15.443Z,27.77
2022-11-03T22:22:02.519Z,21.42
2022-11-03T22:24:48.866Z,20.70
2022-11-03T22:27:16.493Z,25.20
2022-11-03T22:30:02.196Z,23.40
2022-11-03T22:32:29.724Z,20.63
2022-11-03T22:35:20.622Z,26.70
2022-11-03T22:37:47.997Z,25.35
2022-11-03T22:40:34.082Z,27.50
2022-11-03T22:43:20.344Z,27.70
2022-11-03T22:45:57.384Z,25.98
2022-11-03T22:48:26.087Z,24.63
2022-11-03T22:51:13.225Z,21.63
2022-11-03T22:53:58.968Z,49.67
2022-11-03T22:56:28.413Z,22.05
2022-11-03T22:58:59.881Z,25.65
2022-11-03T23:01:30.228Z,25.65
2022-11-03T23:03:57.926Z,20.75
2022-11-03T23:06:30.589Z,23.67
2022-11-03T23:08:58.346Z,19.98
2022-11-03T23:11:29.257Z,22.27
2022-11-03T23:14:00.687Z,24.63
2022-11-03T23:16:37.142Z,27.50
2022-11-03T23:19:26.035Z,22.83
2022-11-03T23:21:58.326Z,24.67
2022-11-03T23:24:46.433Z,28.48
2022-11-03T23:27:14.198Z,24.02
2022-11-03T23:29:43.858Z,22.33
2022-11-03T23:32:11.298Z,19.70
2022-11-03T23:34:39.644Z,25.58
2022-11-03T23:37:09.360Z,24.73
2022-11-03T23:39:36.417Z,27.30
2022-11-03T23:42:06.017Z,25.58
2022-11-03T23:44:53.402Z,26.92
2022-11-03T23:47:41.928Z,25.92
2022-11-03T23:50:09.351Z,24.30
2022-11-03T23:52:38.704Z,25.58
2022-11-03T23:55:08.928Z,23.52
2022-11-03T23:57:55.118Z,21.08
